This demonstration page uses our WeatherBlox Daily Observations layout. Learn more.

Left ArrowRight Arrow

36.17497, -115.13722

Hourly Observations for October 8, 2016

Temp ( °F °C ) Dew Point ( °F °C ) Humidity (%) Winds ( mph kmh ) Pressure ( in mb ) Visibility ( mi km ) Precip ( " mm )
12:53 am 00:53 Clear 71 21.7 16 -8.9 12 12 NNW 7 11 30 1016 10 16.0934 0 0
1:53 am 01:53 Clear 67 19.4 19 -7.2 16 16 NW 3 6 30 1016 10 16.0934 0 0
2:53 am 02:53 Clear 66 18.9 18 -7.8 16 16 Calm 30 1016 10 16.0934 0 0
3:53 am 03:53 Clear 63 17.2 22 -5.6 21 21 Calm 30.01 1016 10 16.0934 0 0
4:53 am 04:53 Clear 62 16.7 22 -5.6 21 21 WNW 5 7 30.01 1016 10 16.0934 0 0
5:53 am 05:53 Clear 62 16.7 23 -5 22 22 NW 7 11 30.01 1016 10 16.0934 0 0
6:53 am 06:53 Sunny 63 17.2 20 -6.7 19 19 W 7 11 30.02 1017 10 16.0934 0 0
7:53 am 07:53 Sunny 65 18.3 19 -7.2 17 17 WSW 3 6 30.04 1017 10 16.0934 0 0
8:53 am 08:53 Sunny 68 20 21 -6.1 17 17 W 3 6 30.05 1018 10 16.0934 0 0
9:53 am 09:53 Sunny 73 22.8 23 -5 15 15 WNW 3 6 30.05 1018 10 16.0934 0 0
10:53 am 10:53 Sunny 77 25 22 -5.6 13 13 Calm 30.05 1018 10 16.0934 0 0
11:53 am 11:53 Sunny 80 26.7 20 -6.7 10 10 Calm 30.02 1017 10 16.0934 0 0
12:53 pm 12:53 Sunny 82 27.8 19 -7.2 9 9 SE 3 6 29.99 1016 10 16.0934 0 0
1:53 pm 13:53 Sunny 85 29.4 21 -6.1 9 9 VRB 7 11 29.97 1015 10 16.0934 0 0
2:53 pm 14:53 Sunny 85 29.4 23 -5 10 10 ESE 8 13 29.96 1015 10 16.0934 0 0
3:53 pm 15:53 Sunny 85 29.4 24 -4.4 11 11 SSE 7 11 29.97 1015 10 16.0934 0 0
4:53 pm 16:53 Sunny 85 29.4 25 -3.9 11 11 S 5 7 29.96 1015 10 16.0934 0 0
5:53 pm 17:53 Sunny 85 29.4 24 -4.4 11 11 Calm 29.96 1015 10 16.0934 0 0
6:53 pm 18:53 Clear 82 27.8 24 -4.4 12 12 Calm 29.97 1015 10 16.0934 0 0
7:53 pm 19:53 Clear 76 24.4 28 -2.2 17 17 N 5 7 29.98 1015 10 16.0934 0 0
8:53 pm 20:53 Clear 74 23.3 32 0 21 21 WNW 7 11 29.99 1016 10 16.0934 0 0
9:53 pm 21:53 Clear 72 22.2 30 -1.1 21 21 WNW 7 11 30 1016 10 16.0934 0 0
10:53 pm 22:53 Clear 70 21.1 30 -1.1 23 23 NW 7 11 30 1016 10 16.0934 0 0
11:53 pm 23:53 Clear 68 20 29 -1.7 23 23 NNW 7 11 30 1016 10 16.0934 0 0

Powered by AerisWeather